Time;durP1;ratioP1;P1;durP2;ratioP2;P2;SDS_P1;SDS_P2;PMS_P1;PMS_P2;Temp;Humidity;BMP_temperature;BMP_pressure;BME280_temperature;BME280_humidity;BME280_pressure;Samples;Min_cycle;Max_cycle;Signal;HPM_P1;HPM_P2
2023/03/29 00:02:04;;;;;;;5.80;3.57;;;5.70;99.90;;;;;;5019087;28;20484;-70
2023/03/29 00:04:30;;;;;;;6.20;3.80;;;5.70;99.90;;;;;;5012205;28;21067;-70
2023/03/29 00:07:02;;;;;;;5.00;3.70;;;5.70;99.90;;;;;;5030641;28;20876;-69
2023/03/29 00:09:30;;;;;;;4.80;3.57;;;5.60;99.90;;;;;;5031883;28;20510;-70
2023/03/29 00:11:57;;;;;;;5.67;4.00;;;5.50;99.90;;;;;;5031780;28;20542;-70
2023/03/29 00:14:24;;;;;;;7.37;3.73;;;5.40;99.90;;;;;;5031899;28;20468;-69
2023/03/29 00:16:50;;;;;;;5.93;3.10;;;5.40;99.90;;;;;;5031464;28;20457;-70
2023/03/29 00:19:18;;;;;;;5.50;3.30;;;5.40;99.90;;;;;;5020211;28;20951;-69
2023/03/29 00:21:45;;;;;;;3.50;3.20;;;5.30;99.90;;;;;;5030769;28;20496;-70
2023/03/29 00:24:11;;;;;;;3.73;3.20;;;5.30;99.90;;;;;;5031559;28;20523;-70
2023/03/29 00:26:38;;;;;;;3.97;3.60;;;5.30;99.90;;;;;;5031809;28;20468;-70
2023/03/29 00:29:05;;;;;;;10.10;3.60;;;5.30;99.90;;;;;;5031297;28;20472;-70
2023/03/29 00:31:31;;;;;;;7.73;4.30;;;5.40;99.90;;;;;;5031394;28;20503;-70
2023/03/29 00:33:58;;;;;;;4.40;3.70;;;5.40;99.90;;;;;;5022210;28;20464;-70
2023/03/29 00:36:26;;;;;;;4.93;3.83;;;5.40;99.90;;;;;;5024291;28;20533;-70
2023/03/29 00:38:55;;;;;;;7.50;3.80;;;5.40;99.90;;;;;;5031540;28;20461;-69
2023/03/29 00:41:22;;;;;;;6.00;3.90;;;5.40;99.90;;;;;;5031259;28;20932;-70
2023/03/29 00:43:58;;;;;;;5.97;4.03;;;5.40;99.90;;;;;;5031248;28;20497;-69
2023/03/29 00:46:25;;;;;;;5.70;4.23;;;5.40;99.90;;;;;;5018857;28;21331;-70
2023/03/29 00:48:54;;;;;;;6.70;4.40;;;5.40;99.90;;;;;;5013758;28;20451;-69
2023/03/29 00:51:24;;;;;;;4.43;3.70;;;5.40;99.90;;;;;;5031177;28;20537;-69
2023/03/29 00:53:56;;;;;;;7.30;5.00;;;5.40;99.90;;;;;;5031604;28;20443;-70
2023/03/29 00:56:28;;;;;;;6.63;4.47;;;5.40;99.90;;;;;;5019289;28;20477;-69
2023/03/29 00:58:58;;;;;;;6.93;4.10;;;5.40;99.90;;;;;;5015489;28;20468;-71
2023/03/29 01:01:29;;;;;;;7.20;4.17;;;5.30;99.90;;;;;;5024707;28;20465;-71
2023/03/29 01:04:02;;;;;;;4.80;4.30;;;5.30;99.90;;;;;;5014507;28;20496;-70
2023/03/29 01:06:32;;;;;;;6.73;4.67;;;5.20;99.90;;;;;;5015760;28;20495;-70
2023/03/29 01:09:06;;;;;;;6.37;5.10;;;5.20;99.90;;;;;;5011094;28;20465;-70
2023/03/29 01:11:37;;;;;;;4.67;4.17;;;5.20;99.90;;;;;;5011605;28;20457;-70
2023/03/29 01:14:06;;;;;;;6.70;4.37;;;5.10;99.90;;;;;;5011406;28;20462;-70
2023/03/29 01:16:37;;;;;;;7.00;4.50;;;5.10;99.90;;;;;;5019185;28;20502;-71
2023/03/29 01:19:06;;;;;;;4.73;4.33;;;5.10;99.90;;;;;;5030754;28;20461;-71
2023/03/29 01:21:39;;;;;;;8.27;4.77;;;5.10;99.90;;;;;;5030518;28;20492;-70
2023/03/29 01:24:34;;;;;;;6.30;4.07;;;5.10;99.90;;;;;;5030770;28;20454;-71
2023/03/29 01:27:06;;;;;;;13.17;4.70;;;5.00;99.90;;;;;;5030819;28;20943;-71
2023/03/29 01:29:38;;;;;;;4.10;3.80;;;5.00;99.90;;;;;;5031013;28;20885;-70
2023/03/29 01:32:11;;;;;;;6.77;4.13;;;5.00;99.90;;;;;;5030467;28;21249;-70
2023/03/29 01:34:45;;;;;;;9.30;4.57;;;5.00;99.90;;;;;;5031166;28;21055;-71
2023/03/29 01:37:18;;;;;;;6.03;4.27;;;5.00;99.90;;;;;;5034520;28;20451;-71
2023/03/29 01:39:45;;;;;;;7.20;3.97;;;5.00;99.90;;;;;;5020193;28;20452;-72
2023/03/29 01:42:38;;;;;;;5.13;4.13;;;5.00;99.90;;;;;;5014673;28;20489;-71
2023/03/29 01:45:15;;;;;;;5.80;3.90;;;4.90;99.90;;;;;;5029522;28;20484;-71
2023/03/29 01:47:47;;;;;;;7.87;4.83;;;4.90;99.90;;;;;;5034973;28;20456;-71
2023/03/29 01:50:19;;;;;;;6.57;4.50;;;4.90;99.90;;;;;;5021119;28;20514;-71
2023/03/29 01:52:52;;;;;;;7.53;4.70;;;4.90;99.90;;;;;;5014725;28;20449;-71
2023/03/29 01:55:23;;;;;;;5.70;4.40;;;4.90;99.90;;;;;;5018837;28;20530;-71
2023/03/29 01:57:52;;;;;;;6.93;5.20;;;4.90;99.90;;;;;;5015079;28;20861;-71
2023/03/29 02:00:23;;;;;;;7.53;4.67;;;5.00;99.90;;;;;;5029954;28;20956;-71
2023/03/29 02:02:52;;;;;;;7.17;4.43;;;5.00;99.90;;;;;;5019722;28;20900;-71
2023/03/29 02:05:21;;;;;;;6.30;4.40;;;5.10;99.90;;;;;;5014444;28;20538;-71
2023/03/29 02:07:50;;;;;;;4.63;4.23;;;5.00;99.90;;;;;;5028613;28;20525;-71
2023/03/29 02:10:18;;;;;;;4.80;3.90;;;5.00;99.90;;;;;;5031098;28;20542;-71
2023/03/29 02:12:45;;;;;;;7.87;4.80;;;5.10;99.90;;;;;;5015363;28;20519;-71
2023/03/29 02:15:13;;;;;;;5.60;4.30;;;5.10;99.90;;;;;;5033736;28;21060;-71
2023/03/29 02:17:42;;;;;;;6.30;4.67;;;5.10;99.90;;;;;;5034484;28;20448;-71
2023/03/29 02:20:13;;;;;;;7.33;4.60;;;5.00;99.90;;;;;;5033809;28;20455;-71
2023/03/29 02:22:47;;;;;;;5.80;4.40;;;5.00;99.90;;;;;;5033997;28;20575;-71
2023/03/29 02:25:14;;;;;;;8.20;4.10;;;5.00;99.90;;;;;;5023621;28;20481;-69
2023/03/29 02:27:42;;;;;;;4.27;3.87;;;5.00;99.90;;;;;;5014244;28;20463;-69
2023/03/29 02:30:10;;;;;;;7.60;4.40;;;5.00;99.90;;;;;;5017111;28;20464;-69
2023/03/29 02:32:49;;;;;;;4.47;3.60;;;5.00;99.90;;;;;;5014095;28;20450;-69
2023/03/29 02:35:20;;;;;;;7.00;4.27;;;5.00;99.90;;;;;;5013838;28;20483;-70
2023/03/29 02:37:53;;;;;;;4.20;3.73;;;4.90;99.90;;;;;;5019346;28;20459;-69
2023/03/29 02:40:22;;;;;;;7.03;4.10;;;4.90;99.90;;;;;;5013605;28;20875;-69
2023/03/29 02:42:50;;;;;;;9.17;4.30;;;4.90;99.90;;;;;;5013845;28;20496;-70
2023/03/29 02:45:18;;;;;;;8.30;4.20;;;4.90;99.90;;;;;;5032774;28;20995;-70
2023/03/29 02:47:51;;;;;;;7.23;4.47;;;4.80;99.90;;;;;;5032535;28;20455;-70
2023/03/29 02:50:19;;;;;;;5.23;4.00;;;4.80;99.90;;;;;;5019561;28;20453;-69
2023/03/29 02:52:53;;;;;;;5.80;4.13;;;4.70;99.90;;;;;;5020624;28;20465;-70
2023/03/29 02:55:24;;;;;;;6.13;3.60;;;4.70;99.90;;;;;;5033541;28;20565;-69
2023/03/29 02:57:50;;;;;;;4.53;4.03;;;4.60;99.90;;;;;;5026179;28;20519;-69
2023/03/29 03:00:18;;;;;;;5.50;4.10;;;4.60;99.90;;;;;;5014515;28;20518;-70
2023/03/29 03:02:47;;;;;;;7.33;3.50;;;4.50;99.90;;;;;;5027053;28;20492;-69
2023/03/29 03:05:14;;;;;;;5.37;4.00;;;4.50;99.90;;;;;;5032788;28;21012;-69
2023/03/29 03:07:41;;;;;;;6.60;3.80;;;4.40;99.90;;;;;;5033438;28;20597;-69
2023/03/29 03:10:09;;;;;;;6.37;4.13;;;4.40;99.90;;;;;;5033306;28;20516;-69
2023/03/29 03:12:36;;;;;;;5.60;3.40;;;4.40;99.90;;;;;;5033179;28;20454;-70
2023/03/29 03:15:05;;;;;;;10.53;3.50;;;4.40;99.90;;;;;;5032942;28;20551;-69
2023/03/29 03:17:32;;;;;;;4.03;3.70;;;4.40;99.90;;;;;;5032302;28;20452;-69
2023/03/29 03:20:00;;;;;;;5.07;3.53;;;4.40;99.90;;;;;;5033394;28;20446;-69
2023/03/29 03:22:26;;;;;;;5.57;3.27;;;4.40;99.90;;;;;;5032961;28;20453;-69
2023/03/29 03:24:53;;;;;;;4.00;3.60;;;4.40;99.90;;;;;;5032731;28;20482;-70
2023/03/29 03:27:20;;;;;;;6.17;3.70;;;4.30;99.90;;;;;;5032532;28;20803;-70
2023/03/29 03:29:47;;;;;;;4.03;3.53;;;4.30;99.90;;;;;;5032868;28;20481;-70
2023/03/29 03:32:14;;;;;;;4.70;4.10;;;4.30;99.90;;;;;;5032138;28;20461;-69
2023/03/29 03:34:40;;;;;;;5.83;3.63;;;4.30;99.90;;;;;;5032881;28;20470;-70
2023/03/29 03:37:10;;;;;;;4.67;3.80;;;4.30;99.90;;;;;;5032723;28;20504;-70
2023/03/29 03:39:37;;;;;;;5.50;4.30;;;4.30;99.90;;;;;;5032863;28;20501;-70
2023/03/29 03:42:04;;;;;;;6.77;3.73;;;4.30;99.90;;;;;;5031776;28;20517;-70
2023/03/29 03:44:30;;;;;;;6.43;4.20;;;4.30;99.90;;;;;;5024418;28;21036;-70
2023/03/29 03:46:57;;;;;;;12.33;4.37;;;4.30;99.90;;;;;;5013146;28;20510;-70
2023/03/29 03:49:24;;;;;;;4.00;3.57;;;4.30;99.90;;;;;;5019117;28;20872;-70
2023/03/29 03:51:51;;;;;;;9.87;4.57;;;4.30;99.90;;;;;;5031864;28;20461;-70
2023/03/29 03:54:19;;;;;;;9.67;3.80;;;4.30;99.90;;;;;;5025933;28;20524;-70
2023/03/29 03:56:46;;;;;;;6.20;4.50;;;4.30;99.90;;;;;;5032193;28;20518;-70
2023/03/29 03:59:13;;;;;;;5.20;4.27;;;4.30;99.90;;;;;;5025080;28;20490;-70
2023/03/29 04:01:42;;;;;;;6.53;4.07;;;4.40;99.90;;;;;;5016422;28;20965;-70
2023/03/29 04:04:09;;;;;;;8.73;4.30;;;4.40;99.90;;;;;;5014817;28;20530;-70
2023/03/29 04:06:36;;;;;;;5.33;4.27;;;4.40;99.90;;;;;;5019745;28;20462;-70
2023/03/29 04:09:03;;;;;;;6.70;4.67;;;4.50;99.90;;;;;;5015916;28;20914;-70
2023/03/29 04:11:32;;;;;;;7.43;4.20;;;4.50;99.90;;;;;;5023957;28;20492;-70
2023/03/29 04:13:59;;;;;;;10.70;5.20;;;4.50;99.90;;;;;;5016438;28;20828;-70
2023/03/29 04:16:26;;;;;;;4.77;3.90;;;4.50;99.90;;;;;;5012151;28;20506;-70
2023/03/29 04:18:52;;;;;;;10.40;4.90;;;4.50;99.90;;;;;;5012379;28;20529;-70
2023/03/29 04:21:19;;;;;;;6.77;5.03;;;4.50;99.90;;;;;;5012613;28;20456;-70
2023/03/29 04:23:46;;;;;;;13.30;4.77;;;4.50;99.90;;;;;;5011746;28;20488;-70
2023/03/29 04:26:14;;;;;;;5.87;4.63;;;4.50;99.90;;;;;;5018907;28;20558;-70
2023/03/29 04:28:42;;;;;;;6.40;4.70;;;4.50;99.90;;;;;;5031821;28;20491;-70
2023/03/29 04:31:10;;;;;;;5.40;4.70;;;4.50;99.90;;;;;;5031845;28;20496;-70
2023/03/29 04:33:37;;;;;;;8.13;4.90;;;4.50;99.90;;;;;;5031370;28;20525;-70
2023/03/29 04:36:05;;;;;;;7.40;5.80;;;4.60;99.90;;;;;;5031583;28;20524;-69
2023/03/29 04:38:34;;;;;;;5.20;4.30;;;4.60;99.90;;;;;;5023568;28;20446;-70
2023/03/29 04:41:02;;;;;;;8.13;4.70;;;4.50;99.90;;;;;;5023531;28;20545;-70
2023/03/29 04:43:29;;;;;;;5.50;4.60;;;4.50;99.90;;;;;;5020116;28;20519;-70
2023/03/29 04:45:58;;;;;;;7.23;5.53;;;4.50;99.90;;;;;;5031697;28;20522;-70
2023/03/29 04:48:25;;;;;;;8.40;4.67;;;4.50;99.90;;;;;;5030971;28;20562;-70
2023/03/29 04:50:53;;;;;;;9.53;4.57;;;4.50;99.90;;;;;;5012406;28;20465;-71
2023/03/29 04:53:20;;;;;;;5.93;4.30;;;4.50;99.90;;;;;;5011584;28;20829;-71
2023/03/29 04:55:47;;;;;;;6.03;4.30;;;4.50;99.90;;;;;;5020207;28;20488;-71
2023/03/29 04:58:14;;;;;;;8.27;4.73;;;4.60;99.90;;;;;;5011324;28;20467;-71
2023/03/29 05:00:41;;;;;;;5.13;4.63;;;4.60;99.90;;;;;;5030181;28;20513;-69
2023/03/29 05:03:13;;;;;;;6.30;4.73;;;4.60;99.90;;;;;;5021691;28;20494;-69
2023/03/29 05:05:41;;;;;;;10.60;4.60;;;4.60;99.90;;;;;;5030237;28;20781;-69
2023/03/29 05:08:08;;;;;;;7.57;4.80;;;4.60;99.90;;;;;;5028553;28;20457;-69
2023/03/29 05:10:35;;;;;;;5.70;5.10;;;4.60;99.90;;;;;;5028788;28;20489;-70
2023/03/29 05:13:02;;;;;;;9.17;5.37;;;4.70;99.90;;;;;;5026832;28;20460;-72
2023/03/29 05:15:29;;;;;;;9.43;4.80;;;4.70;99.90;;;;;;5017803;28;20529;-72
2023/03/29 05:17:57;;;;;;;7.17;5.20;;;4.70;99.90;;;;;;5015497;28;20457;-73
2023/03/29 05:20:25;;;;;;;9.73;4.93;;;4.70;99.90;;;;;;5024078;28;20951;-73
2023/03/29 05:22:52;;;;;;;8.30;4.97;;;4.70;99.90;;;;;;5030103;28;20902;-72
2023/03/29 05:25:19;;;;;;;6.33;4.90;;;4.70;99.90;;;;;;5030025;28;20499;-72
2023/03/29 05:27:46;;;;;;;6.87;5.43;;;4.80;99.90;;;;;;5016604;28;20890;-72
2023/03/29 05:30:14;;;;;;;6.40;4.33;;;4.80;99.90;;;;;;5009717;28;20456;-72
2023/03/29 05:32:41;;;;;;;8.70;4.10;;;4.80;99.90;;;;;;5010946;28;20459;-73
2023/03/29 05:35:08;;;;;;;5.53;4.37;;;4.80;99.90;;;;;;5023260;28;20481;-73
2023/03/29 05:37:37;;;;;;;12.87;4.90;;;4.80;99.90;;;;;;5030934;28;20880;-73
2023/03/29 05:40:08;;;;;;;9.40;4.83;;;4.70;99.90;;;;;;5025233;28;20455;-73
2023/03/29 05:42:36;;;;;;;9.77;4.90;;;4.70;99.90;;;;;;5011290;28;20517;-73
2023/03/29 05:45:03;;;;;;;9.93;4.60;;;4.80;99.90;;;;;;5012797;28;21035;-73
2023/03/29 05:47:30;;;;;;;8.00;4.53;;;4.80;99.90;;;;;;5010914;28;20506;-73
2023/03/29 05:49:57;;;;;;;6.57;5.17;;;4.80;99.90;;;;;;5014371;28;20463;-73
2023/03/29 05:52:24;;;;;;;7.60;5.23;;;4.80;99.90;;;;;;5010704;28;20452;-73
2023/03/29 05:54:51;;;;;;;7.63;5.47;;;4.90;99.90;;;;;;5016692;28;20474;-72
2023/03/29 05:57:18;;;;;;;10.27;4.83;;;4.90;99.90;;;;;;5030688;28;20462;-73
2023/03/29 05:59:45;;;;;;;9.60;5.40;;;4.90;99.90;;;;;;5024556;28;20461;-73
2023/03/29 06:02:14;;;;;;;9.50;5.30;;;5.00;99.90;;;;;;5028858;28;20516;-73
2023/03/29 06:04:41;;;;;;;7.57;5.80;;;5.00;99.90;;;;;;5027477;28;20501;-72
2023/03/29 06:07:11;;;;;;;17.87;6.33;;;5.10;99.90;;;;;;5017706;28;20525;-72
2023/03/29 06:09:39;;;;;;;9.97;5.20;;;5.10;99.90;;;;;;5016239;28;20464;-72
2023/03/29 06:12:07;;;;;;;6.57;5.50;;;5.10;99.90;;;;;;5025854;28;20966;-72
2023/03/29 06:14:35;;;;;;;9.03;5.00;;;5.20;99.90;;;;;;5011528;28;20527;-72
2023/03/29 06:17:02;;;;;;;12.90;5.50;;;5.20;99.90;;;;;;5029636;28;20455;-72
2023/03/29 06:19:29;;;;;;;14.63;5.63;;;5.20;99.90;;;;;;5030393;28;20455;-72
2023/03/29 06:21:55;;;;;;;10.30;5.30;;;5.30;99.90;;;;;;5032900;28;20556;-73
2023/03/29 06:24:23;;;;;;;10.27;5.73;;;5.30;99.90;;;;;;5015550;28;20515;-73
2023/03/29 06:26:51;;;;;;;10.70;5.60;;;5.40;99.90;;;;;;5014700;28;20898;-73
2023/03/29 06:29:19;;;;;;;11.80;5.60;;;5.40;99.90;;;;;;5029431;28;21019;-73
2023/03/29 06:31:46;;;;;;;12.03;5.27;;;5.40;99.90;;;;;;5033806;28;20495;-73
2023/03/29 06:34:13;;;;;;;8.97;6.53;;;5.50;99.90;;;;;;5033653;28;20461;-73
2023/03/29 06:36:39;;;;;;;9.23;5.37;;;5.60;99.90;;;;;;5033384;28;20805;-73
2023/03/29 06:39:06;;;;;;;10.90;5.40;;;5.60;99.90;;;;;;5017974;28;20451;-73
2023/03/29 06:41:32;;;;;;;23.30;5.67;;;5.70;99.90;;;;;;5013962;28;20445;-73
2023/03/29 06:43:59;;;;;;;9.90;5.90;;;5.80;99.90;;;;;;5013184;28;20488;-72
2023/03/29 06:46:27;;;;;;;7.37;5.53;;;5.90;99.90;;;;;;5015234;28;20477;-72
2023/03/29 06:48:54;;;;;;;7.93;5.77;;;6.00;99.90;;;;;;5016263;28;21003;-72
2023/03/29 06:51:21;;;;;;;10.73;5.87;;;6.10;99.90;;;;;;5031485;28;20486;-72
2023/03/29 06:53:47;;;;;;;7.50;5.30;;;6.10;99.90;;;;;;5020158;28;20491;-72
2023/03/29 06:56:14;;;;;;;11.43;6.30;;;6.20;99.90;;;;;;5031071;28;20480;-72
2023/03/29 06:58:41;;;;;;;15.10;5.63;;;6.30;99.90;;;;;;5030950;28;20819;-72
2023/03/29 07:01:08;;;;;;;9.10;5.20;;;6.30;99.90;;;;;;5033622;28;20499;-73
2023/03/29 07:03:38;;;;;;;8.50;5.77;;;6.40;99.90;;;;;;5013406;28;20451;-73
2023/03/29 07:06:08;;;;;;;7.63;4.77;;;6.50;99.90;;;;;;5016475;28;20482;-73
2023/03/29 07:08:42;;;;;;;14.73;6.07;;;6.60;99.90;;;;;;5021219;28;20991;-72
2023/03/29 07:11:09;;;;;;;6.43;5.00;;;6.70;99.90;;;;;;5019654;28;20521;-72
2023/03/29 07:13:35;;;;;;;6.60;5.07;;;6.80;99.90;;;;;;5026692;28;20458;-73
2023/03/29 07:16:02;;;;;;;6.17;5.17;;;6.90;99.90;;;;;;5018142;28;20507;-73
2023/03/29 07:18:29;;;;;;;6.17;4.90;;;7.10;99.90;;;;;;5029258;28;20550;-73
2023/03/29 07:20:57;;;;;;;7.70;5.07;;;7.20;99.90;;;;;;5030283;28;20456;-73
2023/03/29 07:23:23;;;;;;;7.67;4.87;;;7.20;99.90;;;;;;5028952;28;20955;-73
2023/03/29 07:25:50;;;;;;;6.90;5.20;;;7.30;99.90;;;;;;5012900;28;20549;-73
2023/03/29 07:28:17;;;;;;;11.30;5.47;;;7.30;99.90;;;;;;5021990;28;20471;-73
2023/03/29 07:30:44;;;;;;;8.50;5.13;;;7.30;99.90;;;;;;5013145;28;20472;-73
2023/03/29 07:33:12;;;;;;;17.03;5.90;;;7.30;99.90;;;;;;5015332;28;20451;-73
2023/03/29 07:35:38;;;;;;;9.07;5.10;;;7.40;99.90;;;;;;5024801;28;20485;-73
2023/03/29 07:38:07;;;;;;;9.67;5.30;;;7.40;99.90;;;;;;5032836;28;20489;-73
2023/03/29 07:40:34;;;;;;;10.70;5.90;;;7.50;99.90;;;;;;5028326;28;20493;-73
2023/03/29 07:43:01;;;;;;;7.30;5.37;;;7.50;99.90;;;;;;5020299;28;20462;-73
2023/03/29 07:45:28;;;;;;;5.87;4.80;;;7.50;99.90;;;;;;5013183;28;20506;-73
2023/03/29 07:47:56;;;;;;;7.70;5.70;;;7.60;99.90;;;;;;5019035;28;20538;-73
2023/03/29 07:50:24;;;;;;;10.20;5.47;;;7.50;99.90;;;;;;5028129;28;20976;-73
2023/03/29 07:52:50;;;;;;;6.70;5.37;;;7.50;99.90;;;;;;5032868;28;20565;-73
2023/03/29 07:55:19;;;;;;;14.37;5.93;;;7.50;99.90;;;;;;5024971;28;20855;-73
2023/03/29 07:57:46;;;;;;;7.07;5.03;;;7.50;99.90;;;;;;5032670;28;20451;-73
2023/03/29 08:00:14;;;;;;;9.67;5.33;;;7.50;99.90;;;;;;5017798;28;20458;-73
2023/03/29 08:02:42;;;;;;;8.33;5.33;;;7.50;99.90;;;;;;5017150;28;20489;-73
2023/03/29 08:05:11;;;;;;;10.97;5.97;;;7.50;99.90;;;;;;5015403;28;20501;-73
2023/03/29 08:07:39;;;;;;;10.37;5.63;;;7.50;99.90;;;;;;5017594;28;20469;-73
2023/03/29 08:10:08;;;;;;;7.77;5.30;;;7.50;99.90;;;;;;5025829;28;21040;-72
2023/03/29 08:12:37;;;;;;;7.07;5.17;;;7.60;99.90;;;;;;5028249;28;20944;-72
2023/03/29 08:15:05;;;;;;;8.30;5.80;;;7.60;99.90;;;;;;5011749;28;20478;-74
2023/03/29 08:17:33;;;;;;;7.90;5.80;;;7.60;99.90;;;;;;5011514;28;20864;-73
2023/03/29 08:20:00;;;;;;;12.23;6.50;;;7.60;99.90;;;;;;5011164;28;20526;-73
2023/03/29 08:22:27;;;;;;;14.43;8.63;;;7.70;99.90;;;;;;5013164;28;20466;-73
2023/03/29 08:24:54;;;;;;;24.63;9.17;;;7.80;99.90;;;;;;5011271;28;20491;-74
2023/03/29 08:27:21;;;;;;;13.70;8.50;;;7.90;99.90;;;;;;5028590;28;20518;-74
2023/03/29 08:29:49;;;;;;;12.33;7.50;;;7.90;99.90;;;;;;5027546;28;20596;-74
2023/03/29 08:32:16;;;;;;;10.30;6.60;;;8.00;99.90;;;;;;5030356;28;20469;-73
2023/03/29 08:34:42;;;;;;;8.57;5.80;;;8.10;99.90;;;;;;5031241;28;20470;-74
2023/03/29 08:37:09;;;;;;;11.40;6.37;;;8.10;99.90;;;;;;5030881;28;20461;-74
2023/03/29 08:39:36;;;;;;;7.97;5.57;;;8.20;99.90;;;;;;5030978;28;20587;-74
2023/03/29 08:42:24;;;;;;;20.07;5.73;;;8.20;99.90;;;;;;5030797;28;20550;-74
2023/03/29 08:45:02;;;;;;;12.53;6.10;;;8.30;99.90;;;;;;5018705;28;20496;-74
2023/03/29 08:47:37;;;;;;;8.70;5.13;;;8.30;99.90;;;;;;5011222;28;20547;-73
2023/03/29 08:50:04;;;;;;;9.77;5.77;;;8.20;99.90;;;;;;5012457;28;20461;-73
2023/03/29 08:52:35;;;;;;;7.67;6.00;;;8.20;99.90;;;;;;5016270;28;20678;-74
2023/03/29 08:55:05;;;;;;;11.27;6.30;;;8.20;99.90;;;;;;5030819;28;20475;-73
2023/03/29 08:57:34;;;;;;;9.17;6.20;;;8.30;99.90;;;;;;5028231;28;20589;-74
2023/03/29 09:00:06;;;;;;;5.93;5.17;;;8.30;99.90;;;;;;5024601;28;20463;-74
2023/03/29 09:02:35;;;;;;;9.23;5.60;;;8.40;99.90;;;;;;5019085;28;20515;-73
2023/03/29 09:05:08;;;;;;;12.90;5.73;;;8.50;99.90;;;;;;5010702;28;21015;-73
2023/03/29 09:07:35;;;;;;;14.93;5.00;;;8.60;99.90;;;;;;5010484;28;20513;-73
2023/03/29 09:10:02;;;;;;;9.03;5.70;;;8.80;99.90;;;;;;5010620;28;20450;-73
2023/03/29 09:12:43;;;;;;;6.83;5.60;;;8.80;99.90;;;;;;5012694;28;20453;-73
2023/03/29 09:15:18;;;;;;;9.17;6.00;;;8.90;99.90;;;;;;5014960;28;20895;-73
2023/03/29 09:17:57;;;;;;;7.70;5.47;;;8.90;99.90;;;;;;5021714;28;20449;-73
2023/03/29 09:20:44;;;;;;;12.90;5.60;;;8.90;99.90;;;;;;5018181;28;20453;-72
2023/03/29 09:23:48;;;;;;;7.90;5.47;;;9.00;99.90;;;;;;5010394;28;20462;-72
2023/03/29 09:26:22;;;;;;;7.17;4.97;;;8.90;99.90;;;;;;5009498;28;20491;-73
2023/03/29 09:28:57;;;;;;;7.90;5.40;;;8.90;99.90;;;;;;5022655;28;20472;-74
2023/03/29 09:31:30;;;;;;;6.63;5.00;;;9.10;99.90;;;;;;5030972;28;20787;-74
2023/03/29 09:33:59;;;;;;;6.87;5.60;;;9.20;99.90;;;;;;5030686;28;20963;-74
2023/03/29 09:36:33;;;;;;;7.80;5.60;;;9.40;99.90;;;;;;5028666;28;20472;-74
2023/03/29 09:39:00;;;;;;;9.90;5.20;;;9.60;99.90;;;;;;5011178;28;20446;-74
2023/03/29 09:41:31;;;;;;;10.60;6.60;;;9.70;99.90;;;;;;5011057;28;20459;-74
2023/03/29 09:44:00;;;;;;;10.43;6.87;;;9.70;99.90;;;;;;5010843;28;20443;-74
2023/03/29 09:46:34;;;;;;;6.50;5.73;;;9.70;99.90;;;;;;5011291;28;20918;-74
2023/03/29 09:49:01;;;;;;;7.03;5.57;;;9.60;99.90;;;;;;5013717;28;20463;-74
2023/03/29 09:51:32;;;;;;;11.50;5.10;;;9.60;99.90;;;;;;5018635;28;20465;-74
2023/03/29 09:53:59;;;;;;;8.60;5.47;;;9.60;99.90;;;;;;5030782;28;20511;-74
2023/03/29 09:56:27;;;;;;;6.83;5.07;;;9.70;99.90;;;;;;5032115;28;20516;-74
2023/03/29 09:58:53;;;;;;;7.53;5.67;;;9.70;99.90;;;;;;5030311;28;20457;-74
2023/03/29 10:01:20;;;;;;;10.87;5.83;;;9.70;99.90;;;;;;5015890;28;20466;-74
2023/03/29 10:03:53;;;;;;;6.77;5.20;;;9.80;99.90;;;;;;5023027;28;20461;-74
2023/03/29 10:06:24;;;;;;;6.83;4.60;;;9.90;99.90;;;;;;5033955;28;20977;-74
2023/03/29 10:08:53;;;;;;;8.97;5.30;;;9.90;99.90;;;;;;5014726;28;20582;-74
2023/03/29 10:11:23;;;;;;;6.00;4.73;;;10.00;99.90;;;;;;5014552;28;20447;-74
2023/03/29 10:13:53;;;;;;;6.53;5.50;;;10.10;99.90;;;;;;5027882;28;20480;-74
2023/03/29 10:16:22;;;;;;;8.50;6.00;;;10.30;99.90;;;;;;5033959;28;20822;-74
2023/03/29 10:18:50;;;;;;;10.43;5.10;;;10.50;99.90;;;;;;5026453;28;20484;-74
2023/03/29 10:21:19;;;;;;;14.57;4.90;;;10.60;99.90;;;;;;5033396;28;21831;-74
2023/03/29 10:23:47;;;;;;;8.93;5.37;;;10.70;99.90;;;;;;5032990;28;20447;-74
2023/03/29 10:26:22;;;;;;;11.00;5.80;;;10.80;99.90;;;;;;5034110;28;20499;-75
2023/03/29 10:28:52;;;;;;;9.47;5.33;;;10.90;99.90;;;;;;5033884;28;20454;-73
2023/03/29 10:31:22;;;;;;;11.13;5.73;;;11.10;99.90;;;;;;5033581;28;20457;-73
2023/03/29 10:33:52;;;;;;;13.20;6.43;;;11.00;99.90;;;;;;5033954;28;20491;-73
2023/03/29 10:36:22;;;;;;;10.70;6.17;;;10.90;99.90;;;;;;5033047;28;21005;-74
2023/03/29 10:38:50;;;;;;;7.20;5.60;;;10.90;99.90;;;;;;5014366;28;20469;-74
2023/03/29 10:41:18;;;;;;;12.00;6.10;;;10.80;99.90;;;;;;5014112;28;20539;-73
2023/03/29 10:43:48;;;;;;;8.73;6.20;;;10.80;99.90;;;;;;5013390;28;20448;-74
2023/03/29 10:46:21;;;;;;;12.73;6.67;;;10.80;99.90;;;;;;5028959;28;20522;-74
2023/03/29 10:48:49;;;;;;;8.67;6.90;;;10.80;99.90;;;;;;5024180;28;20553;-74
2023/03/29 10:51:18;;;;;;;8.73;6.27;;;10.90;99.90;;;;;;5014527;28;20459;-73
2023/03/29 10:53:47;;;;;;;10.20;6.73;;;10.90;99.90;;;;;;5026119;28;20463;-74
2023/03/29 10:56:34;;;;;;;10.97;6.40;;;10.90;99.90;;;;;;5033283;28;20962;-74
2023/03/29 10:59:18;;;;;;;9.53;6.77;;;10.90;99.90;;;;;;5022292;28;20515;-74
2023/03/29 11:02:07;;;;;;;7.57;6.57;;;11.00;99.90;;;;;;5018228;28;20460;-74
2023/03/29 11:04:41;;;;;;;10.07;6.50;;;10.90;99.90;;;;;;5031144;28;21048;-74
2023/03/29 11:07:25;;;;;;;10.43;7.23;;;10.90;99.90;;;;;;5031523;28;20997;-73
2023/03/29 11:10:03;;;;;;;9.47;7.33;;;10.90;99.90;;;;;;5033904;28;20509;-73
2023/03/29 11:12:37;;;;;;;9.03;6.53;;;10.80;99.90;;;;;;5030678;28;20508;-73
2023/03/29 11:15:16;;;;;;;10.10;6.27;;;10.80;99.90;;;;;;5013371;28;20491;-73
2023/03/29 11:17:55;;;;;;;11.17;6.50;;;10.90;99.90;;;;;;5030706;28;20463;-73
2023/03/29 11:20:31;;;;;;;8.10;5.90;;;10.90;99.90;;;;;;5033086;28;20955;-73
2023/03/29 11:23:09;;;;;;;8.20;6.00;;;11.00;99.90;;;;;;5032741;28;20935;-73
2023/03/29 11:25:50;;;;;;;9.10;6.30;;;11.00;99.90;;;;;;5032971;28;20498;-73
2023/03/29 11:28:24;;;;;;;14.33;6.73;;;11.10;99.90;;;;;;5032800;28;20462;-73
2023/03/29 11:31:00;;;;;;;8.23;5.90;;;11.20;99.90;;;;;;5033140;28;20488;-73
2023/03/29 11:33:37;;;;;;;11.20;6.20;;;11.40;99.90;;;;;;5032417;28;20517;-73
2023/03/29 11:36:11;;;;;;;6.77;5.13;;;11.50;99.90;;;;;;5030038;28;20488;-73
2023/03/29 11:38:42;;;;;;;7.67;5.30;;;11.70;99.90;;;;;;5032389;28;20946;-73
2023/03/29 11:41:16;;;;;;;7.60;5.60;;;11.90;99.90;;;;;;5032952;28;20455;-73
2023/03/29 11:43:47;;;;;;;9.33;5.43;;;12.00;99.90;;;;;;5031990;28;20463;-73
2023/03/29 11:46:17;;;;;;;8.67;6.03;;;12.00;99.90;;;;;;5032356;28;20598;-73
2023/03/29 11:48:50;;;;;;;10.73;5.40;;;12.00;99.90;;;;;;5031645;28;20515;-73
2023/03/29 11:51:21;;;;;;;12.73;6.07;;;12.10;99.90;;;;;;5022394;28;20460;-73
2023/03/29 11:53:56;;;;;;;9.40;6.20;;;12.10;99.90;;;;;;5032441;28;21041;-73
2023/03/29 11:56:28;;;;;;;7.63;5.80;;;12.20;99.90;;;;;;5027211;28;20475;-73
2023/03/29 11:59:00;;;;;;;9.43;5.60;;;12.20;99.90;;;;;;5016409;28;20500;-73
2023/03/29 12:01:33;;;;;;;8.10;5.07;;;12.10;99.90;;;;;;5030245;28;20449;-73
2023/03/29 12:04:04;;;;;;;7.80;4.77;;;12.10;99.90;;;;;;5032090;28;20509;-73
2023/03/29 12:06:36;;;;;;;11.23;5.33;;;12.20;99.90;;;;;;5022797;28;20541;-73
2023/03/29 12:09:07;;;;;;;9.70;5.53;;;12.30;99.90;;;;;;5012478;28;20470;-73
2023/03/29 12:11:40;;;;;;;12.83;5.80;;;12.40;99.90;;;;;;5012493;28;20503;-73
2023/03/29 12:14:14;;;;;;;11.80;5.63;;;12.40;99.90;;;;;;5027724;28;20552;-73
2023/03/29 12:16:44;;;;;;;6.90;5.47;;;12.40;99.90;;;;;;5031671;28;20817;-73
2023/03/29 12:19:17;;;;;;;11.80;5.80;;;12.30;99.90;;;;;;5025191;28;20523;-75
2023/03/29 12:21:46;;;;;;;5.70;4.40;;;12.40;99.90;;;;;;5020644;28;20458;-74
2023/03/29 12:24:14;;;;;;;15.83;5.10;;;12.50;99.90;;;;;;5012133;28;20880;-74
2023/03/29 12:27:07;;;;;;;8.03;5.03;;;12.60;99.90;;;;;;5012047;28;20497;-74
2023/03/29 12:29:51;;;;;;;11.80;5.60;;;12.60;99.90;;;;;;5011809;28;20470;-74
2023/03/29 12:32:36;;;;;;;8.80;4.90;;;12.90;99.90;;;;;;5011360;28;20959;-75
2023/03/29 12:35:19;;;;;;;12.30;4.90;;;13.40;99.90;;;;;;5011361;28;21006;-75
2023/03/29 12:37:55;;;;;;;9.93;5.30;;;13.70;99.90;;;;;;5030999;28;20464;-75
2023/03/29 12:40:24;;;;;;;12.20;5.33;;;13.90;99.90;;;;;;5030602;28;20446;-74
2023/03/29 12:43:01;;;;;;;12.03;5.50;;;13.90;99.90;;;;;;5030327;28;20504;-75
2023/03/29 12:45:33;;;;;;;10.03;5.10;;;14.20;99.90;;;;;;5030463;28;20469;-74
2023/03/29 12:48:00;;;;;;;12.40;5.10;;;14.20;99.90;;;;;;5031112;28;20454;-74
2023/03/29 12:50:32;;;;;;;12.63;4.90;;;14.20;99.90;;;;;;5015477;28;20459;-74
2023/03/29 12:53:05;;;;;;;8.00;5.30;;;14.10;99.90;;;;;;5011139;28;20454;-74
2023/03/29 12:55:40;;;;;;;5.67;4.50;;;14.00;99.90;;;;;;5011013;28;20467;-74
2023/03/29 12:58:25;;;;;;;5.20;4.33;;;13.90;99.90;;;;;;5026040;28;20885;-74
2023/03/29 13:01:03;;;;;;;5.80;4.30;;;14.00;99.90;;;;;;5010964;28;20443;-74
2023/03/29 13:03:41;;;;;;;7.73;4.23;;;14.10;99.90;;;;;;5029519;28;20520;-74
2023/03/29 13:06:10;;;;;;;9.03;4.30;;;14.10;99.90;;;;;;5030637;28;20490;-74
2023/03/29 13:08:38;;;;;;;6.17;4.00;;;14.10;99.90;;;;;;5030551;28;20512;-74